sensor_id;sensor_type;location;lat;lon;timestamp;P1;durP1;ratioP1;P2;durP2;ratioP2
42146;SDS011;27815;43.410;11.852;2023-05-07T00:01:12;2.88;;;1.30;;
42146;SDS011;27815;43.410;11.852;2023-05-07T00:05:15;3.47;;;1.42;;
42146;SDS011;27815;43.410;11.852;2023-05-07T00:09:18;3.22;;;1.40;;
42146;SDS011;27815;43.410;11.852;2023-05-07T00:13:21;2.22;;;1.35;;
42146;SDS011;27815;43.410;11.852;2023-05-07T00:17:24;2.42;;;1.15;;
42146;SDS011;27815;43.410;11.852;2023-05-07T00:21:28;1.88;;;1.20;;
42146;SDS011;27815;43.410;11.852;2023-05-07T00:25:31;2.13;;;1.30;;
42146;SDS011;27815;43.410;11.852;2023-05-07T00:29:34;2.80;;;1.60;;
42146;SDS011;27815;43.410;11.852;2023-05-07T00:33:37;2.88;;;1.38;;
42146;SDS011;27815;43.410;11.852;2023-05-07T00:37:40;3.58;;;1.42;;
42146;SDS011;27815;43.410;11.852;2023-05-07T00:41:43;2.67;;;1.65;;
42146;SDS011;27815;43.410;11.852;2023-05-07T00:45:47;2.60;;;1.30;;
42146;SDS011;27815;43.410;11.852;2023-05-07T00:49:50;2.38;;;1.30;;
42146;SDS011;27815;43.410;11.852;2023-05-07T00:53:54;3.03;;;1.50;;
42146;SDS011;27815;43.410;11.852;2023-05-07T00:57:57;2.13;;;1.30;;
42146;SDS011;27815;43.410;11.852;2023-05-07T01:02:00;2.47;;;1.48;;
42146;SDS011;27815;43.410;11.852;2023-05-07T01:06:03;3.30;;;1.60;;
42146;SDS011;27815;43.410;11.852;2023-05-07T01:10:10;2.80;;;1.58;;
42146;SDS011;27815;43.410;11.852;2023-05-07T01:14:14;2.28;;;1.35;;
42146;SDS011;27815;43.410;11.852;2023-05-07T01:18:18;2.90;;;1.40;;
42146;SDS011;27815;43.410;11.852;2023-05-07T01:22:40;2.35;;;1.38;;
42146;SDS011;27815;43.410;11.852;2023-05-07T01:26:44;2.10;;;1.30;;
42146;SDS011;27815;43.410;11.852;2023-05-07T01:30:51;3.30;;;1.63;;
42146;SDS011;27815;43.410;11.852;2023-05-07T01:34:58;3.17;;;1.25;;
42146;SDS011;27815;43.410;11.852;2023-05-07T01:39:03;2.97;;;1.30;;
42146;SDS011;27815;43.410;11.852;2023-05-07T01:43:08;3.00;;;1.45;;
42146;SDS011;27815;43.410;11.852;2023-05-07T01:47:12;2.58;;;1.27;;
42146;SDS011;27815;43.410;11.852;2023-05-07T01:51:17;3.20;;;1.58;;
42146;SDS011;27815;43.410;11.852;2023-05-07T01:55:21;3.60;;;1.90;;
42146;SDS011;27815;43.410;11.852;2023-05-07T01:59:25;2.38;;;1.33;;
42146;SDS011;27815;43.410;11.852;2023-05-07T02:03:28;1.77;;;1.20;;
42146;SDS011;27815;43.410;11.852;2023-05-07T02:07:40;2.92;;;1.50;;
42146;SDS011;27815;43.410;11.852;2023-05-07T02:11:43;2.22;;;1.17;;
42146;SDS011;27815;43.410;11.852;2023-05-07T02:15:47;2.20;;;1.30;;
42146;SDS011;27815;43.410;11.852;2023-05-07T02:19:53;3.80;;;1.50;;
42146;SDS011;27815;43.410;11.852;2023-05-07T02:23:56;3.60;;;1.30;;
42146;SDS011;27815;43.410;11.852;2023-05-07T02:27:59;3.97;;;1.38;;
42146;SDS011;27815;43.410;11.852;2023-05-07T02:32:20;2.63;;;1.55;;
42146;SDS011;27815;43.410;11.852;2023-05-07T02:36:25;2.53;;;1.20;;
42146;SDS011;27815;43.410;11.852;2023-05-07T02:40:38;2.92;;;1.50;;
42146;SDS011;27815;43.410;11.852;2023-05-07T02:44:42;2.70;;;1.30;;
42146;SDS011;27815;43.410;11.852;2023-05-07T02:48:45;5.05;;;1.73;;
42146;SDS011;27815;43.410;11.852;2023-05-07T02:52:47;1.98;;;1.10;;
42146;SDS011;27815;43.410;11.852;2023-05-07T02:56:51;3.78;;;1.50;;
42146;SDS011;27815;43.410;11.852;2023-05-07T03:00:54;2.80;;;1.45;;
42146;SDS011;27815;43.410;11.852;2023-05-07T03:05:07;3.38;;;1.42;;
42146;SDS011;27815;43.410;11.852;2023-05-07T03:09:10;3.45;;;1.60;;
42146;SDS011;27815;43.410;11.852;2023-05-07T03:13:14;3.47;;;1.77;;
42146;SDS011;27815;43.410;11.852;2023-05-07T03:17:18;4.20;;;1.40;;
42146;SDS011;27815;43.410;11.852;2023-05-07T03:21:22;3.53;;;1.50;;
42146;SDS011;27815;43.410;11.852;2023-05-07T03:25:28;2.22;;;1.27;;
42146;SDS011;27815;43.410;11.852;2023-05-07T03:29:34;4.00;;;1.63;;
42146;SDS011;27815;43.410;11.852;2023-05-07T03:33:39;3.20;;;1.35;;
42146;SDS011;27815;43.410;11.852;2023-05-07T03:37:59;3.08;;;1.67;;
42146;SDS011;27815;43.410;11.852;2023-05-07T03:42:04;3.28;;;1.50;;
42146;SDS011;27815;43.410;11.852;2023-05-07T03:46:08;3.05;;;1.60;;
42146;SDS011;27815;43.410;11.852;2023-05-07T03:50:11;3.00;;;1.35;;
42146;SDS011;27815;43.410;11.852;2023-05-07T03:54:14;2.78;;;1.40;;
42146;SDS011;27815;43.410;11.852;2023-05-07T03:58:20;2.38;;;1.35;;
42146;SDS011;27815;43.410;11.852;2023-05-07T04:02:23;2.65;;;1.42;;
42146;SDS011;27815;43.410;11.852;2023-05-07T04:06:26;3.58;;;1.60;;
42146;SDS011;27815;43.410;11.852;2023-05-07T04:10:30;2.78;;;1.52;;
42146;SDS011;27815;43.410;11.852;2023-05-07T04:14:36;3.13;;;1.60;;
42146;SDS011;27815;43.410;11.852;2023-05-07T04:18:40;3.28;;;1.92;;
42146;SDS011;27815;43.410;11.852;2023-05-07T04:22:43;3.70;;;1.63;;
42146;SDS011;27815;43.410;11.852;2023-05-07T04:26:46;3.40;;;1.70;;
42146;SDS011;27815;43.410;11.852;2023-05-07T04:30:49;3.08;;;1.48;;
42146;SDS011;27815;43.410;11.852;2023-05-07T04:34:52;2.42;;;1.52;;
42146;SDS011;27815;43.410;11.852;2023-05-07T04:38:55;2.97;;;1.67;;
42146;SDS011;27815;43.410;11.852;2023-05-07T04:42:58;3.60;;;1.63;;
42146;SDS011;27815;43.410;11.852;2023-05-07T04:47:05;2.10;;;1.40;;
42146;SDS011;27815;43.410;11.852;2023-05-07T04:51:08;4.30;;;1.63;;
42146;SDS011;27815;43.410;11.852;2023-05-07T04:55:12;3.67;;;1.92;;
42146;SDS011;27815;43.410;11.852;2023-05-07T04:59:16;3.55;;;1.50;;
42146;SDS011;27815;43.410;11.852;2023-05-07T05:03:19;3.15;;;1.88;;
42146;SDS011;27815;43.410;11.852;2023-05-07T05:07:22;3.75;;;1.80;;
42146;SDS011;27815;43.410;11.852;2023-05-07T05:11:26;3.90;;;2.00;;
42146;SDS011;27815;43.410;11.852;2023-05-07T05:15:29;3.17;;;1.90;;
42146;SDS011;27815;43.410;11.852;2023-05-07T05:19:36;4.30;;;2.50;;
42146;SDS011;27815;43.410;11.852;2023-05-07T05:23:39;3.80;;;2.30;;
42146;SDS011;27815;43.410;11.852;2023-05-07T05:27:44;3.42;;;2.22;;
42146;SDS011;27815;43.410;11.852;2023-05-07T05:31:48;4.60;;;2.60;;
42146;SDS011;27815;43.410;11.852;2023-05-07T05:35:55;5.00;;;2.58;;
42146;SDS011;27815;43.410;11.852;2023-05-07T05:39:58;3.50;;;2.05;;
42146;SDS011;27815;43.410;11.852;2023-05-07T05:44:03;3.47;;;2.30;;
42146;SDS011;27815;43.410;11.852;2023-05-07T05:48:06;5.95;;;3.38;;
42146;SDS011;27815;43.410;11.852;2023-05-07T05:52:12;6.13;;;2.80;;
42146;SDS011;27815;43.410;11.852;2023-05-07T05:56:16;7.65;;;3.15;;
42146;SDS011;27815;43.410;11.852;2023-05-07T06:00:19;7.47;;;3.22;;
42146;SDS011;27815;43.410;11.852;2023-05-07T06:04:33;6.80;;;3.50;;
42146;SDS011;27815;43.410;11.852;2023-05-07T06:08:37;7.13;;;3.72;;
42146;SDS011;27815;43.410;11.852;2023-05-07T06:12:40;6.47;;;3.28;;
42146;SDS011;27815;43.410;11.852;2023-05-07T06:16:43;5.68;;;3.65;;
42146;SDS011;27815;43.410;11.852;2023-05-07T06:20:46;6.97;;;3.80;;
42146;SDS011;27815;43.410;11.852;2023-05-07T06:24:58;7.22;;;4.03;;
42146;SDS011;27815;43.410;11.852;2023-05-07T06:29:01;5.57;;;4.00;;
42146;SDS011;27815;43.410;11.852;2023-05-07T06:33:05;6.20;;;4.25;;
42146;SDS011;27815;43.410;11.852;2023-05-07T06:37:08;5.63;;;3.95;;
42146;SDS011;27815;43.410;11.852;2023-05-07T06:41:26;5.95;;;4.15;;
42146;SDS011;27815;43.410;11.852;2023-05-07T06:45:32;8.70;;;5.17;;
42146;SDS011;27815;43.410;11.852;2023-05-07T06:49:35;6.85;;;5.13;;
42146;SDS011;27815;43.410;11.852;2023-05-07T06:53:38;6.53;;;5.10;;
42146;SDS011;27815;43.410;11.852;2023-05-07T06:57:43;8.68;;;5.85;;
42146;SDS011;27815;43.410;11.852;2023-05-07T07:01:46;7.70;;;5.07;;
42146;SDS011;27815;43.410;11.852;2023-05-07T07:05:53;8.02;;;6.20;;
42146;SDS011;27815;43.410;11.852;2023-05-07T07:10:05;8.67;;;5.40;;
42146;SDS011;27815;43.410;11.852;2023-05-07T07:14:09;7.85;;;6.95;;
42146;SDS011;27815;43.410;11.852;2023-05-07T07:18:19;8.18;;;7.10;;
42146;SDS011;27815;43.410;11.852;2023-05-07T07:22:24;8.15;;;7.13;;
42146;SDS011;27815;43.410;11.852;2023-05-07T07:26:27;7.78;;;6.57;;
42146;SDS011;27815;43.410;11.852;2023-05-07T07:30:30;6.43;;;5.85;;
42146;SDS011;27815;43.410;11.852;2023-05-07T07:34:33;7.65;;;7.05;;
42146;SDS011;27815;43.410;11.852;2023-05-07T07:38:37;8.40;;;7.72;;
42146;SDS011;27815;43.410;11.852;2023-05-07T07:42:40;8.07;;;7.40;;
42146;SDS011;27815;43.410;11.852;2023-05-07T07:46:43;8.27;;;7.60;;
42146;SDS011;27815;43.410;11.852;2023-05-07T07:50:53;7.95;;;7.20;;
42146;SDS011;27815;43.410;11.852;2023-05-07T07:54:57;6.25;;;5.75;;
42146;SDS011;27815;43.410;11.852;2023-05-07T07:59:00;7.00;;;5.22;;
42146;SDS011;27815;43.410;11.852;2023-05-07T08:03:05;5.22;;;4.72;;
42146;SDS011;27815;43.410;11.852;2023-05-07T08:07:15;6.20;;;4.82;;
42146;SDS011;27815;43.410;11.852;2023-05-07T08:11:22;6.03;;;4.45;;
42146;SDS011;27815;43.410;11.852;2023-05-07T08:15:27;6.47;;;3.75;;
42146;SDS011;27815;43.410;11.852;2023-05-07T08:19:31;5.75;;;3.22;;
42146;SDS011;27815;43.410;11.852;2023-05-07T08:23:48;6.60;;;2.90;;
42146;SDS011;27815;43.410;11.852;2023-05-07T08:27:51;5.03;;;2.38;;
42146;SDS011;27815;43.410;11.852;2023-05-07T08:31:58;4.15;;;2.40;;
42146;SDS011;27815;43.410;11.852;2023-05-07T08:36:07;3.60;;;2.00;;
42146;SDS011;27815;43.410;11.852;2023-05-07T08:40:16;3.20;;;2.20;;
42146;SDS011;27815;43.410;11.852;2023-05-07T08:44:23;3.13;;;1.98;;
42146;SDS011;27815;43.410;11.852;2023-05-07T08:48:34;3.70;;;1.92;;
42146;SDS011;27815;43.410;11.852;2023-05-07T08:53:02;3.60;;;2.03;;
42146;SDS011;27815;43.410;11.852;2023-05-07T08:57:07;4.45;;;2.50;;
42146;SDS011;27815;43.410;11.852;2023-05-07T09:01:15;4.32;;;2.00;;
42146;SDS011;27815;43.410;11.852;2023-05-07T09:05:25;5.50;;;2.38;;
42146;SDS011;27815;43.410;11.852;2023-05-07T09:09:28;5.72;;;2.47;;
42146;SDS011;27815;43.410;11.852;2023-05-07T09:13:32;4.85;;;2.25;;
42146;SDS011;27815;43.410;11.852;2023-05-07T09:17:37;5.68;;;2.28;;
42146;SDS011;27815;43.410;11.852;2023-05-07T09:21:41;4.53;;;2.20;;
42146;SDS011;27815;43.410;11.852;2023-05-07T09:25:46;3.22;;;1.85;;
42146;SDS011;27815;43.410;11.852;2023-05-07T09:30:06;2.47;;;1.80;;
42146;SDS011;27815;43.410;11.852;2023-05-07T09:34:11;3.42;;;1.65;;
42146;SDS011;27815;43.410;11.852;2023-05-07T09:38:21;2.58;;;1.50;;
42146;SDS011;27815;43.410;11.852;2023-05-07T09:42:30;2.92;;;1.35;;
42146;SDS011;27815;43.410;11.852;2023-05-07T09:50:55;2.92;;;1.60;;
42146;SDS011;27815;43.410;11.852;2023-05-07T09:55:09;4.93;;;1.50;;
42146;SDS011;27815;43.410;11.852;2023-05-07T09:59:15;3.20;;;1.40;;
42146;SDS011;27815;43.410;11.852;2023-05-07T10:03:20;2.83;;;1.50;;
42146;SDS011;27815;43.410;11.852;2023-05-07T10:07:34;3.53;;;1.58;;
42146;SDS011;27815;43.410;11.852;2023-05-07T10:11:47;2.95;;;1.50;;
42146;SDS011;27815;43.410;11.852;2023-05-07T10:15:56;2.38;;;1.40;;
42146;SDS011;27815;43.410;11.852;2023-05-07T10:20:05;2.85;;;1.42;;
42146;SDS011;27815;43.410;11.852;2023-05-07T10:24:27;2.47;;;1.38;;
42146;SDS011;27815;43.410;11.852;2023-05-07T10:28:39;2.95;;;1.35;;
42146;SDS011;27815;43.410;11.852;2023-05-07T10:32:49;3.35;;;1.20;;
42146;SDS011;27815;43.410;11.852;2023-05-07T10:37:04;2.85;;;1.40;;
42146;SDS011;27815;43.410;11.852;2023-05-07T10:41:08;2.70;;;1.60;;
42146;SDS011;27815;43.410;11.852;2023-05-07T10:45:15;2.20;;;1.23;;
42146;SDS011;27815;43.410;11.852;2023-05-07T10:49:22;4.10;;;1.40;;
42146;SDS011;27815;43.410;11.852;2023-05-07T10:53:30;2.53;;;1.50;;
42146;SDS011;27815;43.410;11.852;2023-05-07T10:57:48;2.67;;;1.45;;
42146;SDS011;27815;43.410;11.852;2023-05-07T11:06:15;3.65;;;1.45;;
42146;SDS011;27815;43.410;11.852;2023-05-07T11:15:04;3.42;;;1.58;;
42146;SDS011;27815;43.410;11.852;2023-05-07T11:24:22;2.45;;;1.27;;
42146;SDS011;27815;43.410;11.852;2023-05-07T11:28:39;4.20;;;1.60;;
42146;SDS011;27815;43.410;11.852;2023-05-07T11:32:47;2.67;;;1.45;;
42146;SDS011;27815;43.410;11.852;2023-05-07T11:37:02;2.75;;;1.50;;
42146;SDS011;27815;43.410;11.852;2023-05-07T11:41:16;2.63;;;1.25;;
42146;SDS011;27815;43.410;11.852;2023-05-07T11:45:23;2.60;;;1.25;;
42146;SDS011;27815;43.410;11.852;2023-05-07T11:49:46;3.00;;;1.27;;
42146;SDS011;27815;43.410;11.852;2023-05-07T11:53:53;1.88;;;1.20;;
42146;SDS011;27815;43.410;11.852;2023-05-07T11:57:56;2.05;;;1.20;;
42146;SDS011;27815;43.410;11.852;2023-05-07T12:01:59;2.22;;;1.00;;
42146;SDS011;27815;43.410;11.852;2023-05-07T12:06:07;1.77;;;0.98;;
42146;SDS011;27815;43.410;11.852;2023-05-07T12:10:10;1.30;;;0.80;;
42146;SDS011;27815;43.410;11.852;2023-05-07T12:14:15;2.28;;;1.10;;
42146;SDS011;27815;43.410;11.852;2023-05-07T12:18:26;1.70;;;0.80;;
42146;SDS011;27815;43.410;11.852;2023-05-07T12:22:30;1.00;;;0.63;;
42146;SDS011;27815;43.410;11.852;2023-05-07T12:26:37;1.55;;;0.90;;
42146;SDS011;27815;43.410;11.852;2023-05-07T12:30:42;2.05;;;1.00;;
42146;SDS011;27815;43.410;11.852;2023-05-07T12:34:47;1.30;;;0.80;;
42146;SDS011;27815;43.410;11.852;2023-05-07T12:38:54;1.50;;;0.82;;
42146;SDS011;27815;43.410;11.852;2023-05-07T12:42:58;2.05;;;1.00;;
42146;SDS011;27815;43.410;11.852;2023-05-07T12:47:02;1.63;;;1.00;;
42146;SDS011;27815;43.410;11.852;2023-05-07T12:51:05;1.85;;;0.95;;
42146;SDS011;27815;43.410;11.852;2023-05-07T12:55:12;2.90;;;1.00;;
42146;SDS011;27815;43.410;11.852;2023-05-07T12:59:37;1.88;;;1.00;;
42146;SDS011;27815;43.410;11.852;2023-05-07T13:03:42;1.55;;;0.85;;
42146;SDS011;27815;43.410;11.852;2023-05-07T13:07:55;1.30;;;0.80;;
42146;SDS011;27815;43.410;11.852;2023-05-07T13:11:58;1.40;;;0.70;;
42146;SDS011;27815;43.410;11.852;2023-05-07T13:16:03;1.42;;;0.93;;
42146;SDS011;27815;43.410;11.852;2023-05-07T13:20:09;2.00;;;0.98;;
42146;SDS011;27815;43.410;11.852;2023-05-07T13:24:16;1.35;;;0.80;;
42146;SDS011;27815;43.410;11.852;2023-05-07T13:28:29;2.70;;;0.80;;
42146;SDS011;27815;43.410;11.852;2023-05-07T13:32:37;1.83;;;0.88;;
42146;SDS011;27815;43.410;11.852;2023-05-07T13:36:43;2.15;;;1.02;;
42146;SDS011;27815;43.410;11.852;2023-05-07T13:40:46;1.70;;;0.90;;
42146;SDS011;27815;43.410;11.852;2023-05-07T13:44:54;1.98;;;0.93;;
42146;SDS011;27815;43.410;11.852;2023-05-07T13:48:57;1.95;;;1.08;;
42146;SDS011;27815;43.410;11.852;2023-05-07T13:53:02;1.92;;;1.02;;
42146;SDS011;27815;43.410;11.852;2023-05-07T13:57:05;2.45;;;1.15;;
42146;SDS011;27815;43.410;11.852;2023-05-07T14:01:10;2.28;;;1.17;;
42146;SDS011;27815;43.410;11.852;2023-05-07T14:05:18;2.30;;;0.90;;
42146;SDS011;27815;43.410;11.852;2023-05-07T14:09:38;2.17;;;1.00;;
42146;SDS011;27815;43.410;11.852;2023-05-07T14:13:40;5.28;;;1.00;;
42146;SDS011;27815;43.410;11.852;2023-05-07T14:17:44;2.28;;;0.82;;
42146;SDS011;27815;43.410;11.852;2023-05-07T14:21:47;1.23;;;0.82;;
42146;SDS011;27815;43.410;11.852;2023-05-07T14:25:49;2.58;;;0.90;;
42146;SDS011;27815;43.410;11.852;2023-05-07T14:29:54;2.13;;;0.90;;
42146;SDS011;27815;43.410;11.852;2023-05-07T14:34:01;1.75;;;1.00;;
42146;SDS011;27815;43.410;11.852;2023-05-07T14:38:06;2.13;;;1.00;;
42146;SDS011;27815;43.410;11.852;2023-05-07T14:42:10;1.65;;;0.95;;
42146;SDS011;27815;43.410;11.852;2023-05-07T14:46:14;1.88;;;1.10;;
42146;SDS011;27815;43.410;11.852;2023-05-07T14:50:21;1.48;;;0.80;;
42146;SDS011;27815;43.410;11.852;2023-05-07T14:54:40;1.25;;;0.82;;
42146;SDS011;27815;43.410;11.852;2023-05-07T14:58:52;1.42;;;0.95;;
42146;SDS011;27815;43.410;11.852;2023-05-07T15:02:56;2.50;;;1.00;;
42146;SDS011;27815;43.410;11.852;2023-05-07T15:07:07;1.88;;;0.98;;
42146;SDS011;27815;43.410;11.852;2023-05-07T15:11:10;4.10;;;0.93;;
42146;SDS011;27815;43.410;11.852;2023-05-07T15:15:13;2.40;;;1.20;;
42146;SDS011;27815;43.410;11.852;2023-05-07T15:19:16;2.03;;;0.90;;
42146;SDS011;27815;43.410;11.852;2023-05-07T15:23:19;2.80;;;1.08;;
42146;SDS011;27815;43.410;11.852;2023-05-07T15:27:24;1.85;;;1.00;;
42146;SDS011;27815;43.410;11.852;2023-05-07T15:31:32;2.67;;;1.20;;
42146;SDS011;27815;43.410;11.852;2023-05-07T15:35:35;4.32;;;1.70;;
42146;SDS011;27815;43.410;11.852;2023-05-07T15:39:38;4.13;;;2.03;;
42146;SDS011;27815;43.410;11.852;2023-05-07T15:43:46;3.45;;;1.70;;
42146;SDS011;27815;43.410;11.852;2023-05-07T15:47:50;3.75;;;1.70;;
42146;SDS011;27815;43.410;11.852;2023-05-07T15:51:54;6.03;;;2.00;;
42146;SDS011;27815;43.410;11.852;2023-05-07T15:55:56;5.07;;;2.17;;
42146;SDS011;27815;43.410;11.852;2023-05-07T15:59:59;4.22;;;1.70;;
42146;SDS011;27815;43.410;11.852;2023-05-07T16:04:14;5.18;;;1.65;;
42146;SDS011;27815;43.410;11.852;2023-05-07T16:08:17;2.45;;;1.23;;
42146;SDS011;27815;43.410;11.852;2023-05-07T16:12:20;4.80;;;1.52;;
42146;SDS011;27815;43.410;11.852;2023-05-07T16:16:23;3.95;;;1.50;;
42146;SDS011;27815;43.410;11.852;2023-05-07T16:20:31;3.05;;;1.67;;
42146;SDS011;27815;43.410;11.852;2023-05-07T16:24:41;2.55;;;1.20;;
42146;SDS011;27815;43.410;11.852;2023-05-07T16:28:44;4.10;;;1.40;;
42146;SDS011;27815;43.410;11.852;2023-05-07T16:32:47;3.53;;;1.20;;
42146;SDS011;27815;43.410;11.852;2023-05-07T16:36:56;2.47;;;1.13;;
42146;SDS011;27815;43.410;11.852;2023-05-07T16:41:00;2.97;;;1.13;;
42146;SDS011;27815;43.410;11.852;2023-05-07T16:45:03;2.60;;;1.02;;
42146;SDS011;27815;43.410;11.852;2023-05-07T16:49:06;3.95;;;1.10;;
42146;SDS011;27815;43.410;11.852;2023-05-07T16:53:09;1.50;;;0.85;;
42146;SDS011;27815;43.410;11.852;2023-05-07T16:57:12;5.80;;;1.50;;
42146;SDS011;27815;43.410;11.852;2023-05-07T17:01:16;6.22;;;1.00;;
42146;SDS011;27815;43.410;11.852;2023-05-07T17:05:20;2.45;;;1.38;;
42146;SDS011;27815;43.410;11.852;2023-05-07T17:09:25;3.15;;;1.50;;
42146;SDS011;27815;43.410;11.852;2023-05-07T17:13:28;2.67;;;1.42;;
42146;SDS011;27815;43.410;11.852;2023-05-07T17:17:31;2.83;;;1.27;;
42146;SDS011;27815;43.410;11.852;2023-05-07T17:21:36;3.15;;;1.35;;
42146;SDS011;27815;43.410;11.852;2023-05-07T17:25:39;3.95;;;1.33;;
42146;SDS011;27815;43.410;11.852;2023-05-07T17:29:46;2.28;;;1.00;;
42146;SDS011;27815;43.410;11.852;2023-05-07T17:33:49;2.00;;;1.05;;
42146;SDS011;27815;43.410;11.852;2023-05-07T17:37:52;2.33;;;1.08;;
42146;SDS011;27815;43.410;11.852;2023-05-07T17:41:55;1.75;;;0.90;;
42146;SDS011;27815;43.410;11.852;2023-05-07T17:45:58;3.67;;;1.40;;
42146;SDS011;27815;43.410;11.852;2023-05-07T17:50:01;4.15;;;1.30;;
42146;SDS011;27815;43.410;11.852;2023-05-07T17:54:10;2.10;;;1.00;;
42146;SDS011;27815;43.410;11.852;2023-05-07T17:58:17;1.98;;;1.17;;
42146;SDS011;27815;43.410;11.852;2023-05-07T18:02:28;2.67;;;1.50;;
42146;SDS011;27815;43.410;11.852;2023-05-07T18:06:31;1.77;;;1.00;;
42146;SDS011;27815;43.410;11.852;2023-05-07T18:10:34;2.95;;;1.30;;
42146;SDS011;27815;43.410;11.852;2023-05-07T18:14:45;2.40;;;0.88;;
42146;SDS011;27815;43.410;11.852;2023-05-07T18:18:49;2.13;;;0.90;;
42146;SDS011;27815;43.410;11.852;2023-05-07T18:22:56;1.92;;;1.08;;
42146;SDS011;27815;43.410;11.852;2023-05-07T18:26:59;1.92;;;1.05;;
42146;SDS011;27815;43.410;11.852;2023-05-07T18:31:01;1.85;;;1.08;;
42146;SDS011;27815;43.410;11.852;2023-05-07T18:35:05;2.25;;;1.20;;
42146;SDS011;27815;43.410;11.852;2023-05-07T18:39:09;2.53;;;1.10;;
42146;SDS011;27815;43.410;11.852;2023-05-07T18:43:12;1.98;;;1.20;;
42146;SDS011;27815;43.410;11.852;2023-05-07T18:47:15;2.38;;;1.30;;
42146;SDS011;27815;43.410;11.852;2023-05-07T18:51:18;2.13;;;1.05;;
42146;SDS011;27815;43.410;11.852;2023-05-07T18:55:21;3.38;;;1.38;;
42146;SDS011;27815;43.410;11.852;2023-05-07T18:59:24;2.70;;;1.40;;
42146;SDS011;27815;43.410;11.852;2023-05-07T19:03:28;4.22;;;1.25;;
42146;SDS011;27815;43.410;11.852;2023-05-07T19:07:31;2.38;;;1.00;;
42146;SDS011;27815;43.410;11.852;2023-05-07T19:11:34;4.18;;;1.27;;
42146;SDS011;27815;43.410;11.852;2023-05-07T19:15:37;1.63;;;1.10;;
42146;SDS011;27815;43.410;11.852;2023-05-07T19:19:39;1.60;;;0.98;;
42146;SDS011;27815;43.410;11.852;2023-05-07T19:23:42;3.53;;;1.33;;
42146;SDS011;27815;43.410;11.852;2023-05-07T19:27:47;1.73;;;1.10;;
42146;SDS011;27815;43.410;11.852;2023-05-07T19:31:52;2.35;;;1.17;;
42146;SDS011;27815;43.410;11.852;2023-05-07T19:35:55;2.35;;;1.23;;
42146;SDS011;27815;43.410;11.852;2023-05-07T19:40:02;2.22;;;1.30;;
42146;SDS011;27815;43.410;11.852;2023-05-07T19:44:07;3.38;;;1.50;;
42146;SDS011;27815;43.410;11.852;2023-05-07T19:48:12;1.95;;;1.30;;
42146;SDS011;27815;43.410;11.852;2023-05-07T19:52:18;2.33;;;1.80;;
42146;SDS011;27815;43.410;11.852;2023-05-07T19:56:21;2.83;;;1.50;;
42146;SDS011;27815;43.410;11.852;2023-05-07T20:00:24;4.10;;;1.58;;
42146;SDS011;27815;43.410;11.852;2023-05-07T20:04:32;2.70;;;1.52;;
42146;SDS011;27815;43.410;11.852;2023-05-07T20:08:39;3.55;;;1.40;;
42146;SDS011;27815;43.410;11.852;2023-05-07T20:12:42;2.42;;;1.48;;
42146;SDS011;27815;43.410;11.852;2023-05-07T20:16:44;2.95;;;1.60;;
42146;SDS011;27815;43.410;11.852;2023-05-07T20:20:47;2.75;;;1.50;;
42146;SDS011;27815;43.410;11.852;2023-05-07T20:24:51;2.80;;;1.50;;
42146;SDS011;27815;43.410;11.852;2023-05-07T20:28:54;2.30;;;1.35;;
42146;SDS011;27815;43.410;11.852;2023-05-07T20:32:57;2.83;;;1.50;;
42146;SDS011;27815;43.410;11.852;2023-05-07T20:37:00;1.65;;;1.40;;
42146;SDS011;27815;43.410;11.852;2023-05-07T20:41:08;2.78;;;1.67;;
42146;SDS011;27815;43.410;11.852;2023-05-07T20:45:13;2.67;;;1.42;;
42146;SDS011;27815;43.410;11.852;2023-05-07T20:49:16;3.13;;;1.77;;
42146;SDS011;27815;43.410;11.852;2023-05-07T20:53:19;2.70;;;1.70;;
42146;SDS011;27815;43.410;11.852;2023-05-07T20:57:22;3.10;;;1.52;;
42146;SDS011;27815;43.410;11.852;2023-05-07T21:01:26;2.58;;;1.73;;
42146;SDS011;27815;43.410;11.852;2023-05-07T21:05:29;4.10;;;1.70;;
42146;SDS011;27815;43.410;11.852;2023-05-07T21:09:33;3.13;;;1.70;;
42146;SDS011;27815;43.410;11.852;2023-05-07T21:13:36;2.97;;;1.75;;
42146;SDS011;27815;43.410;11.852;2023-05-07T21:17:39;3.03;;;1.88;;
42146;SDS011;27815;43.410;11.852;2023-05-07T21:21:42;2.83;;;1.95;;
42146;SDS011;27815;43.410;11.852;2023-05-07T21:25:45;2.88;;;1.83;;
42146;SDS011;27815;43.410;11.852;2023-05-07T21:29:49;3.35;;;1.63;;
42146;SDS011;27815;43.410;11.852;2023-05-07T21:33:52;3.08;;;1.58;;
42146;SDS011;27815;43.410;11.852;2023-05-07T21:37:55;2.17;;;1.40;;
42146;SDS011;27815;43.410;11.852;2023-05-07T21:41:58;2.95;;;1.77;;
42146;SDS011;27815;43.410;11.852;2023-05-07T21:46:05;3.40;;;1.85;;
42146;SDS011;27815;43.410;11.852;2023-05-07T21:50:09;2.72;;;1.70;;
42146;SDS011;27815;43.410;11.852;2023-05-07T21:54:13;2.80;;;1.75;;
42146;SDS011;27815;43.410;11.852;2023-05-07T21:58:16;4.15;;;1.60;;
42146;SDS011;27815;43.410;11.852;2023-05-07T22:02:19;2.70;;;1.48;;
42146;SDS011;27815;43.410;11.852;2023-05-07T22:06:22;2.17;;;1.33;;
42146;SDS011;27815;43.410;11.852;2023-05-07T22:10:26;2.55;;;1.55;;
42146;SDS011;27815;43.410;11.852;2023-05-07T22:14:29;2.53;;;1.48;;
42146;SDS011;27815;43.410;11.852;2023-05-07T22:18:33;2.50;;;1.65;;
42146;SDS011;27815;43.410;11.852;2023-05-07T22:22:46;2.40;;;1.60;;
42146;SDS011;27815;43.410;11.852;2023-05-07T22:26:56;3.25;;;1.80;;
42146;SDS011;27815;43.410;11.852;2023-05-07T22:30:59;3.38;;;1.80;;
42146;SDS011;27815;43.410;11.852;2023-05-07T22:35:02;3.90;;;1.95;;
42146;SDS011;27815;43.410;11.852;2023-05-07T22:39:05;3.33;;;1.83;;
42146;SDS011;27815;43.410;11.852;2023-05-07T22:43:10;3.42;;;1.95;;
42146;SDS011;27815;43.410;11.852;2023-05-07T22:47:12;3.03;;;1.50;;
42146;SDS011;27815;43.410;11.852;2023-05-07T22:51:15;2.78;;;1.75;;
42146;SDS011;27815;43.410;11.852;2023-05-07T22:55:20;2.80;;;1.63;;
42146;SDS011;27815;43.410;11.852;2023-05-07T22:59:39;2.85;;;1.73;;
42146;SDS011;27815;43.410;11.852;2023-05-07T23:03:47;3.08;;;1.90;;
42146;SDS011;27815;43.410;11.852;2023-05-07T23:07:50;2.45;;;1.88;;
42146;SDS011;27815;43.410;11.852;2023-05-07T23:11:53;3.95;;;2.13;;
42146;SDS011;27815;43.410;11.852;2023-05-07T23:15:56;3.90;;;2.10;;
42146;SDS011;27815;43.410;11.852;2023-05-07T23:20:00;3.17;;;1.80;;
42146;SDS011;27815;43.410;11.852;2023-05-07T23:24:03;3.20;;;2.13;;
42146;SDS011;27815;43.410;11.852;2023-05-07T23:28:06;2.60;;;1.70;;
42146;SDS011;27815;43.410;11.852;2023-05-07T23:32:09;2.63;;;1.65;;
42146;SDS011;27815;43.410;11.852;2023-05-07T23:36:11;3.92;;;1.65;;
42146;SDS011;27815;43.410;11.852;2023-05-07T23:40:16;3.45;;;1.95;;
42146;SDS011;27815;43.410;11.852;2023-05-07T23:44:19;3.10;;;1.88;;
42146;SDS011;27815;43.410;11.852;2023-05-07T23:48:22;2.63;;;1.52;;
42146;SDS011;27815;43.410;11.852;2023-05-07T23:52:25;3.10;;;1.60;;
42146;SDS011;27815;43.410;11.852;2023-05-07T23:56:28;3.22;;;1.65;;
